Time;durP1;ratioP1;P1;durP2;ratioP2;P2;SDS_P1;SDS_P2;PMS_P1;PMS_P2;Temp;Humidity;BMP_temperature;BMP_pressure;BME280_temperature;BME280_humidity;BME280_pressure;Samples;Min_cycle;Max_cycle;Signal;HPM_P1;HPM_P2
2023/05/01 00:00:19;;;;;;;7.18;3.60;;;;;;;-146.25;84.34;52201.94;2080355;28;20038;-65
2023/05/01 00:01:26;;;;;;;7.57;3.38;;;;;;;-146.25;85.04;52149.22;2080274;28;20744;-65
2023/05/01 00:02:29;;;;;;;6.38;3.60;;;;;;;-146.25;84.65;52201.94;2079785;28;28067;-65
2023/05/01 00:03:32;;;;;;;6.68;3.78;;;;;;;-146.25;85.15;52177.59;2080317;28;20045;-64
2023/05/01 00:04:34;;;;;;;6.95;3.58;;;;;;;-146.25;84.95;52181.66;2087208;28;37798;-66
2023/05/01 00:05:36;;;;;;;6.13;3.50;;;;;;;-146.25;86.06;52163.41;2087122;28;34278;-65
2023/05/01 00:06:39;;;;;;;7.07;3.70;;;;;;;-146.25;85.28;52199.91;2079702;28;30477;-65
2023/05/01 00:07:41;;;;;;;6.95;3.92;;;;;;;-146.25;85.12;52165.44;2079309;28;38982;-65
2023/05/01 00:08:43;;;;;;;10.10;3.85;;;;;;;-146.25;86.12;52185.72;2079569;28;30356;-66
2023/05/01 00:09:47;;;;;;;8.43;3.75;;;;;;;-146.25;86.74;52189.78;2079577;28;35191;-65
2023/05/01 00:10:49;;;;;;;12.55;3.95;;;;;;;-146.25;87.09;52238.44;2080295;28;38426;-65
2023/05/01 00:11:51;;;;;;;10.77;4.13;;;;;;;-146.25;86.90;52159.34;2080815;28;33480;-65
2023/05/01 00:12:55;;;;;;;11.50;4.55;;;;;;;-146.25;87.04;52193.81;2080732;28;35435;-65
2023/05/01 00:13:56;;;;;;;9.45;3.88;;;;;;;-146.25;87.07;52201.94;2081581;28;23287;-66
2023/05/01 00:14:58;;;;;;;8.45;3.80;;;;;;;-146.25;87.12;52167.47;2081063;28;35668;-66
2023/05/01 00:16:00;;;;;;;8.40;4.07;;;;;;;-146.25;86.86;52187.75;2080810;28;35797;-65
2023/05/01 00:17:02;;;;;;;8.52;4.10;;;;;;;-146.25;87.61;52179.63;2081420;28;25965;-66
2023/05/01 00:18:03;;;;;;;8.95;4.07;;;;;;;-146.25;87.45;52193.81;2080827;28;36207;-65
2023/05/01 00:19:05;;;;;;;6.47;4.22;;;;;;;-146.25;86.98;52189.78;2080854;28;30593;-65
2023/05/01 00:20:10;;;;;;;6.10;3.58;;;;;;;-146.25;87.77;52214.09;2080913;28;36419;-65
2023/05/01 00:21:12;;;;;;;9.38;3.97;;;;;;;-146.25;87.16;52208.03;2080864;28;36430;-66
2023/05/01 00:22:14;;;;;;;9.02;4.57;;;;;;;-146.25;87.78;52185.72;2080768;28;34765;-66
2023/05/01 00:23:15;;;;;;;5.57;3.40;;;;;;;-146.25;87.84;52193.81;2080725;28;35473;-65
2023/05/01 00:24:17;;;;;;;10.52;4.63;;;;;;;-146.25;87.55;52181.66;2081017;28;35016;-65
2023/05/01 00:25:19;;;;;;;9.00;4.30;;;;;;;-146.25;87.87;52177.59;2081463;28;20030;-65
2023/05/01 00:26:21;;;;;;;7.65;4.20;;;;;;;-146.25;88.21;52201.94;2080932;28;36080;-65
2023/05/01 00:27:23;;;;;;;13.20;4.63;;;;;;;-146.25;88.30;52197.88;2081134;28;21001;-65
2023/05/01 00:28:25;;;;;;;7.10;4.05;;;;;;;-146.25;88.24;52208.03;2080326;28;25070;-65
2023/05/01 00:29:26;;;;;;;13.32;4.65;;;;;;;-146.25;87.62;52228.28;2081321;28;24209;-65
2023/05/01 00:30:32;;;;;;;8.77;4.13;;;;;;;-146.25;88.28;52185.72;2080340;28;20919;-65
2023/05/01 00:31:34;;;;;;;8.77;4.43;;;;;;;-146.25;88.37;52183.69;2080794;28;20042;-65
2023/05/01 00:32:37;;;;;;;9.77;4.50;;;;;;;-146.25;88.52;52218.16;2081227;28;24293;-65
2023/05/01 00:33:40;;;;;;;9.45;4.35;;;;;;;-146.25;88.62;52214.09;2081308;28;20054;-66
2023/05/01 00:34:44;;;;;;;9.75;4.78;;;;;;;-146.25;88.80;52193.81;2079849;28;38961;-65
2023/05/01 00:35:46;;;;;;;8.40;4.35;;;;;;;-146.25;88.97;52208.03;2080847;28;20034;-63
2023/05/01 00:36:50;;;;;;;9.10;4.57;;;;;;;-146.25;88.74;52236.41;2081053;28;20038;-65
2023/05/01 00:37:54;;;;;;;10.10;4.82;;;;;;;-146.25;88.51;52175.56;2081432;28;20418;-65
2023/05/01 00:38:56;;;;;;;8.63;4.50;;;;;;;-146.25;89.13;52214.09;2081576;28;20883;-65
2023/05/01 00:39:58;;;;;;;8.05;4.53;;;;;;;-146.25;89.37;52218.16;2080852;28;34456;-65
2023/05/01 00:41:00;;;;;;;8.95;4.35;;;;;;;-146.25;88.96;52230.31;2081127;28;20038;-65
2023/05/01 00:42:01;;;;;;;8.15;4.50;;;;;;;-146.25;88.90;52212.06;2080939;28;21379;-65
2023/05/01 00:43:06;;;;;;;9.55;4.60;;;;;;;-146.25;88.77;52163.41;2081113;28;25513;-65
2023/05/01 00:44:08;;;;;;;10.40;4.32;;;;;;;-146.25;90.67;52167.47;2080553;28;20865;-65
2023/05/01 00:45:10;;;;;;;11.55;4.70;;;;;;;-146.25;89.56;52141.13;2072076;28;25870;-64
2023/05/01 00:46:12;;;;;;;9.15;4.63;;;;;;;-146.25;89.14;52183.69;2080638;28;20082;-65
2023/05/01 00:47:14;;;;;;;8.18;4.10;;;;;;;-146.25;89.93;52216.13;2088629;28;20042;-65
2023/05/01 00:48:18;;;;;;;6.57;4.70;;;;;;;-146.25;90.30;52175.56;2080529;28;28264;-64
2023/05/01 00:49:20;;;;;;;6.50;4.03;;;;;;;-146.25;89.71;52206.00;2081054;28;24690;-65
2023/05/01 00:50:22;;;;;;;10.07;4.50;;;;;;;-146.25;90.50;52206.00;2080482;28;20065;-64
2023/05/01 00:51:27;;;;;;;10.65;5.30;;;;;;;-146.25;91.35;52169.50;2072133;28;26946;-64
2023/05/01 00:52:29;;;;;;;10.55;4.82;;;;;;;-146.25;90.92;52165.44;2088124;28;30428;-64
2023/05/01 00:53:34;;;;;;;8.18;4.47;;;;;;;-146.25;92.67;52216.13;2087765;28;32531;-64
2023/05/01 00:54:36;;;;;;;10.20;4.90;;;;;;;-146.25;91.45;52206.00;2088265;28;28187;-64
2023/05/01 00:55:41;;;;;;;8.02;4.47;;;;;;;-146.25;90.71;52201.94;2088273;28;20052;-64
2023/05/01 00:56:43;;;;;;;8.23;5.00;;;;;;;-146.25;91.43;52220.19;2080862;28;20120;-65
2023/05/01 00:57:46;;;;;;;9.40;4.97;;;;;;;-146.25;91.67;52210.03;2081164;28;20038;-65
2023/05/01 00:58:52;;;;;;;10.23;4.93;;;;;;;-146.25;92.21;52201.94;2088643;28;24033;-64
2023/05/01 00:59:54;;;;;;;8.63;4.97;;;;;;;-146.25;91.49;52212.06;2087747;28;20918;-66
2023/05/01 01:00:57;;;;;;;14.10;5.43;;;;;;;-146.25;92.23;52201.94;2080072;28;29818;-65
2023/05/01 01:01:58;;;;;;;10.10;5.18;;;;;;;-146.25;92.35;52185.72;2072328;28;20034;-65
2023/05/01 01:03:01;;;;;;;12.73;5.53;;;;;;;-146.25;92.59;52173.56;2080260;28;25181;-65
2023/05/01 01:04:03;;;;;;;15.77;5.70;;;;;;;-146.25;92.81;52177.59;2079842;28;38891;-64
2023/05/01 01:05:05;;;;;;;13.35;5.35;;;;;;;-146.25;93.18;52181.66;2072334;28;20046;-65
2023/05/01 01:06:31;;;;;;;9.15;5.57;;;;;;;-146.25;93.31;52187.75;2080698;28;20121;-65
2023/05/01 01:07:55;;;;;;;17.08;5.53;;;;;;;-146.25;92.80;52206.00;2081875;28;21149;-64
2023/05/01 01:09:30;;;;;;;10.80;4.93;;;;;;;-146.25;93.21;52203.97;2080951;28;30706;-65
2023/05/01 01:11:07;;;;;;;9.10;5.00;;;;;;;-146.25;92.85;52193.81;2081096;28;26822;-65
2023/05/01 01:12:25;;;;;;;14.13;6.28;;;;;;;-146.25;93.46;52161.38;2080733;28;21064;-65
2023/05/01 01:13:56;;;;;;;15.70;6.35;;;;;;;-146.25;93.90;52177.59;2080791;28;20168;-65
2023/05/01 01:15:10;;;;;;;9.90;5.70;;;;;;;-146.25;93.01;52175.56;2047352;28;20044;-65
2023/05/01 01:16:27;;;;;;;12.30;6.55;;;;;;;-146.25;94.33;52177.59;2080608;28;33013;-64
2023/05/01 01:18:11;;;;;;;9.45;5.95;;;;;;;-146.25;93.31;52165.44;2080182;28;20049;-65
2023/05/01 01:20:09;;;;;;;13.15;5.60;;;;;;;-146.25;93.08;52163.41;2060634;28;36577;-65
2023/05/01 01:21:39;;;;;;;13.48;5.93;;;;;;;-146.25;93.13;52201.94;2064820;28;20046;-66
2023/05/01 01:22:49;;;;;;;10.15;5.57;;;;;;;-146.25;93.70;52175.56;2080807;28;20077;-65
2023/05/01 01:24:45;;;;;;;11.88;6.32;;;;;;;-146.25;93.69;52234.38;2080008;28;27930;-65
2023/05/01 01:26:40;;;;;;;12.48;6.28;;;;;;;-146.25;94.15;52212.06;2079096;28;33312;-66
2023/05/01 01:28:06;;;;;;;7.95;5.10;;;;;;;-146.25;93.28;52167.47;2080711;28;27040;-65
2023/05/01 01:29:29;;;;;;;10.80;5.80;;;;;;;-146.25;93.92;52193.81;2080928;28;28046;-65
2023/05/01 01:30:55;;;;;;;12.20;5.75;;;;;;;-146.25;93.54;52189.78;2080995;28;29537;-65
2023/05/01 01:32:59;;;;;;;7.53;5.20;;;;;;;-146.25;94.05;52210.03;2080732;28;28713;-65
2023/05/01 01:34:23;;;;;;;12.02;5.80;;;;;;;-146.25;95.59;52203.97;2070812;28;23618;-65
2023/05/01 01:35:27;;;;;;;10.98;6.45;;;;;;;-146.25;96.43;52187.75;2088414;28;29575;-66
2023/05/01 01:36:50;;;;;;;13.75;7.15;;;;;;;-146.25;96.42;52203.97;2085470;28;30892;-65
2023/05/01 01:38:04;;;;;;;13.23;6.80;;;;;;;-146.25;95.38;52212.06;2088905;28;20843;-65
2023/05/01 01:39:25;;;;;;;13.10;7.05;;;;;;;-146.25;95.35;52210.03;2076635;28;28291;-65
2023/05/01 01:40:49;;;;;;;13.85;7.00;;;;;;;-146.25;95.57;52208.03;2074158;28;31316;-66
2023/05/01 01:41:57;;;;;;;11.90;6.85;;;;;;;-146.25;95.89;52177.59;2083037;28;20150;-65
2023/05/01 01:43:06;;;;;;;10.82;6.57;;;;;;;-146.25;95.72;52214.09;2080543;28;20046;-65
2023/05/01 01:44:26;;;;;;;10.15;6.45;;;;;;;-146.25;95.41;52218.16;2078628;28;20042;-65
2023/05/01 01:45:41;;;;;;;12.90;7.40;;;;;;;-146.25;94.84;52187.75;2077846;28;28079;-64
2023/05/01 01:46:44;;;;;;;11.43;6.68;;;;;;;-146.25;94.18;52195.84;2079611;28;34275;-66
2023/05/01 01:47:48;;;;;;;10.15;6.85;;;;;;;-146.25;93.91;52197.88;2072369;28;20157;-64
2023/05/01 01:48:53;;;;;;;14.15;6.80;;;;;;;-146.25;94.75;52232.34;2079577;28;25047;-66
2023/05/01 01:49:56;;;;;;;12.48;6.93;;;;;;;-146.25;93.85;52222.22;2079716;28;20601;-65
2023/05/01 01:51:03;;;;;;;14.93;7.07;;;;;;;-146.25;94.31;52224.25;2079983;28;29347;-64
2023/05/01 01:52:07;;;;;;;17.48;7.22;;;;;;;-146.25;93.97;52181.66;2072548;28;20912;-64
2023/05/01 01:53:14;;;;;;;9.90;6.38;;;;;;;-146.25;93.90;52185.72;2072236;28;20816;-64
2023/05/01 01:54:23;;;;;;;16.77;6.88;;;;;;;-146.25;92.77;52167.47;2065426;28;20673;-65
2023/05/01 01:55:31;;;;;;;13.43;6.47;;;;;;;-146.25;91.88;52218.16;2080566;28;26504;-65
2023/05/01 01:56:39;;;;;;;12.57;6.25;;;;;;;-146.25;92.27;52218.16;2080095;28;20864;-65
2023/05/01 01:57:44;;;;;;;15.68;6.40;;;;;;;-146.25;91.33;52208.03;2072065;28;20058;-66
2023/05/01 01:58:50;;;;;;;13.02;6.65;;;;;;;-146.25;91.82;52226.25;2064362;28;20051;-66
2023/05/01 01:59:54;;;;;;;12.25;6.40;;;;;;;-146.25;91.70;52220.19;2064028;28;26660;-65
2023/05/01 02:00:58;;;;;;;12.82;6.45;;;;;;;-146.25;91.81;52210.03;2071499;28;20416;-65
2023/05/01 02:02:01;;;;;;;13.90;6.70;;;;;;;-146.25;91.61;52185.72;2080343;28;20042;-64
2023/05/01 02:03:04;;;;;;;11.65;6.10;;;;;;;-146.25;91.33;52212.06;2080039;28;25284;-65
2023/05/01 02:04:08;;;;;;;10.63;6.53;;;;;;;-146.25;91.85;52191.81;2080235;28;28280;-65
2023/05/01 02:05:18;;;;;;;13.40;6.57;;;;;;;-146.25;91.13;52197.88;2071869;28;25049;-65
2023/05/01 02:06:21;;;;;;;8.60;4.75;;;;;;;-146.25;91.10;52206.00;2079828;28;30615;-65
2023/05/01 02:07:25;;;;;;;12.43;6.75;;;;;;;-146.25;90.92;52206.00;2080758;28;20878;-65
2023/05/01 02:08:30;;;;;;;10.13;5.80;;;;;;;-146.25;91.45;52206.00;2081366;28;20038;-65
2023/05/01 02:09:34;;;;;;;10.57;5.97;;;;;;;-146.25;91.39;52181.66;2080100;28;20041;-65
2023/05/01 02:10:40;;;;;;;8.48;5.80;;;;;;;-146.25;91.46;52171.53;2072008;28;20084;-65
2023/05/01 02:11:42;;;;;;;9.32;5.85;;;;;;;-146.25;91.70;52201.94;2072098;28;20157;-65
2023/05/01 02:12:49;;;;;;;9.65;6.43;;;;;;;-146.25;91.76;52183.69;2080010;28;20038;-65
2023/05/01 02:13:53;;;;;;;11.65;6.07;;;;;;;-146.25;91.36;52206.00;2079169;28;23972;-64
2023/05/01 02:14:58;;;;;;;14.55;6.40;;;;;;;-146.25;91.49;52210.03;2079453;28;20033;-65
2023/05/01 02:16:02;;;;;;;13.77;6.03;;;;;;;-146.25;90.55;52185.72;2072090;28;25566;-65
2023/05/01 02:17:08;;;;;;;14.98;6.00;;;;;;;-146.25;91.09;52195.84;2080030;28;20045;-65
2023/05/01 02:18:12;;;;;;;11.50;6.13;;;;;;;-146.25;90.63;52187.75;2071712;28;31360;-64
2023/05/01 02:19:15;;;;;;;11.57;6.13;;;;;;;-146.25;91.06;52203.97;2079767;28;24363;-63
2023/05/01 02:20:20;;;;;;;8.70;6.15;;;;;;;-146.25;90.16;52185.72;2088329;28;20108;-66
2023/05/01 02:21:23;;;;;;;10.82;6.10;;;;;;;-146.25;90.43;52191.81;2079282;28;20052;-66
2023/05/01 02:22:26;;;;;;;15.73;6.72;;;;;;;-146.25;90.46;52193.81;2071618;28;27976;-65
2023/05/01 02:23:32;;;;;;;10.25;5.97;;;;;;;-146.25;90.41;52203.97;2079964;28;20042;-66
2023/05/01 02:24:37;;;;;;;15.60;6.60;;;;;;;-146.25;90.49;52183.69;2079740;28;26525;-65
2023/05/01 02:25:39;;;;;;;11.48;6.18;;;;;;;-146.25;90.33;52181.66;2063156;28;31603;-66
2023/05/01 02:26:48;;;;;;;12.68;6.43;;;;;;;-146.25;90.46;52181.66;2071787;28;29066;-66
2023/05/01 02:27:56;;;;;;;13.23;6.38;;;;;;;-146.25;90.28;52181.66;2079765;28;24575;-66
2023/05/01 02:28:58;;;;;;;13.18;6.10;;;;;;;-146.25;89.87;52208.03;2080155;28;20042;-65
2023/05/01 02:30:00;;;;;;;12.70;5.78;;;;;;;-146.25;90.20;52187.75;2079882;28;20046;-65
2023/05/01 02:31:02;;;;;;;12.80;6.75;;;;;;;-146.25;90.65;52173.56;2079999;28;30448;-65
2023/05/01 02:32:04;;;;;;;10.90;6.35;;;;;;;-146.25;90.69;52199.91;2079303;28;20046;-65
2023/05/01 02:33:07;;;;;;;10.90;6.28;;;;;;;-146.25;91.05;52214.09;2079431;28;20038;-64
2023/05/01 02:34:10;;;;;;;9.82;6.00;;;;;;;-146.25;90.80;52195.84;2080140;28;22630;-65
2023/05/01 02:35:12;;;;;;;13.20;6.03;;;;;;;-146.25;90.66;52226.25;2080716;28;20053;-65
2023/05/01 02:36:13;;;;;;;11.80;6.03;;;;;;;-146.25;90.23;52197.88;2079617;28;20041;-65
2023/05/01 02:37:15;;;;;;;9.82;5.72;;;;;;;-146.25;89.71;52177.59;2079537;28;20042;-65
2023/05/01 02:38:21;;;;;;;14.00;6.82;;;;;;;-146.25;90.65;52153.28;2079864;28;20057;-65
2023/05/01 02:39:23;;;;;;;10.85;5.80;;;;;;;-146.25;90.57;52218.16;2080169;28;20038;-65
2023/05/01 02:40:25;;;;;;;17.50;7.00;;;;;;;-146.25;90.07;52218.16;2079679;28;27135;-65
2023/05/01 02:41:28;;;;;;;13.10;6.18;;;;;;;-146.25;90.59;52208.03;2079962;28;20034;-65
2023/05/01 02:42:32;;;;;;;9.77;6.10;;;;;;;-146.25;90.79;52212.06;2087625;28;20625;-65
2023/05/01 02:43:35;;;;;;;13.38;6.80;;;;;;;-146.25;90.33;52173.56;2088104;28;20041;-65
2023/05/01 02:44:42;;;;;;;12.10;6.63;;;;;;;-146.25;90.94;52193.81;2079965;28;20107;-65
2023/05/01 02:45:46;;;;;;;13.27;6.70;;;;;;;-146.25;90.71;52183.69;2079477;28;20046;-65
2023/05/01 02:46:51;;;;;;;11.63;6.38;;;;;;;-146.25;91.29;52183.69;2079613;28;20160;-64
2023/05/01 02:47:58;;;;;;;11.73;6.47;;;;;;;-146.25;90.85;52187.75;2071377;28;20874;-65
2023/05/01 02:49:02;;;;;;;13.45;6.38;;;;;;;-146.25;90.67;52201.94;2072946;28;20089;-65
2023/05/01 02:50:07;;;;;;;10.07;6.43;;;;;;;-146.25;90.59;52187.75;2079582;28;20088;-65
2023/05/01 02:51:13;;;;;;;11.27;6.35;;;;;;;-146.25;89.57;52197.88;2071209;28;23089;-66
2023/05/01 02:52:19;;;;;;;10.38;6.45;;;;;;;-146.25;89.82;52230.31;2071894;28;20061;-65
2023/05/01 02:53:23;;;;;;;8.25;5.82;;;;;;;-146.25;89.56;52210.03;2072966;28;20038;-64
2023/05/01 02:54:31;;;;;;;15.40;6.00;;;;;;;-146.25;89.71;52222.22;2072765;28;20184;-65
2023/05/01 02:55:34;;;;;;;14.95;6.55;;;;;;;-146.25;89.58;52222.22;2079788;28;20050;-65
2023/05/01 02:56:36;;;;;;;12.00;5.78;;;;;;;-146.25;89.01;52187.75;2079673;28;28122;-65
2023/05/01 02:57:38;;;;;;;14.20;6.15;;;;;;;-146.25;89.04;52208.03;2079546;28;20053;-65
2023/05/01 02:58:40;;;;;;;13.13;6.25;;;;;;;-146.25;89.40;52238.44;2079878;28;20896;-66
2023/05/01 02:59:42;;;;;;;11.18;5.60;;;;;;;-146.25;88.14;52195.84;2079532;28;21957;-65
2023/05/01 03:00:46;;;;;;;12.45;5.63;;;;;;;-146.25;88.12;52191.81;2079653;28;26441;-66
2023/05/01 03:01:48;;;;;;;15.55;5.78;;;;;;;-146.25;88.36;52195.84;2079432;28;20156;-65
2023/05/01 03:02:50;;;;;;;10.05;5.85;;;;;;;-146.25;88.32;52175.56;2079188;28;35899;-65
2023/05/01 03:03:52;;;;;;;11.48;6.22;;;;;;;-146.25;88.28;52163.41;2080685;28;20041;-66
2023/05/01 03:04:54;;;;;;;11.40;5.72;;;;;;;-146.25;88.96;52214.09;2087664;28;27839;-66
2023/05/01 03:05:58;;;;;;;8.52;6.18;;;;;;;-146.25;88.03;52197.88;2078999;28;25831;-66
2023/05/01 03:07:00;;;;;;;10.82;6.47;;;;;;;-146.25;88.48;52157.34;2079006;28;35597;-66
2023/05/01 03:08:03;;;;;;;15.13;6.25;;;;;;;-146.25;88.55;52173.56;2079739;28;20962;-65
2023/05/01 03:09:07;;;;;;;11.63;5.75;;;;;;;-146.25;89.22;52199.91;2072074;28;20757;-65
2023/05/01 03:10:10;;;;;;;12.88;5.80;;;;;;;-146.25;89.29;52210.03;2071437;28;20050;-65
2023/05/01 03:11:13;;;;;;;10.73;6.38;;;;;;;-146.25;89.15;52232.34;2079454;28;27698;-65
2023/05/01 03:12:15;;;;;;;10.75;6.13;;;;;;;-146.25;88.53;52212.06;2087484;28;20670;-66
2023/05/01 03:13:17;;;;;;;11.23;5.90;;;;;;;-146.25;88.43;52218.16;2080117;28;28733;-64
2023/05/01 03:14:21;;;;;;;13.15;6.22;;;;;;;-146.25;88.76;52230.31;2080061;28;25574;-65
2023/05/01 03:15:25;;;;;;;9.15;5.38;;;;;;;-146.25;88.79;52193.81;2079011;28;35079;-65
2023/05/01 03:16:27;;;;;;;13.32;6.63;;;;;;;-146.25;89.15;52203.97;2072333;28;20939;-66
2023/05/01 03:17:31;;;;;;;9.07;5.78;;;;;;;-146.25;88.39;52199.91;2079466;28;20042;-65
2023/05/01 03:18:35;;;;;;;15.90;6.47;;;;;;;-146.25;88.66;52163.41;2079956;28;33116;-65
2023/05/01 03:19:41;;;;;;;10.35;6.15;;;;;;;-146.25;89.48;52183.69;2080195;28;24250;-65
2023/05/01 03:20:58;;;;;;;10.90;6.53;;;;;;;-146.25;89.24;52165.44;2080265;28;28807;-65
2023/05/01 03:22:02;;;;;;;10.98;6.18;;;;;;;-146.25;89.37;52203.97;2079759;28;20046;-65
2023/05/01 03:23:07;;;;;;;12.45;5.68;;;;;;;-146.25;89.75;52208.03;2079758;28;20045;-66
2023/05/01 03:24:09;;;;;;;13.82;6.07;;;;;;;-146.25;90.14;52206.00;2080255;28;20176;-66
2023/05/01 03:25:11;;;;;;;10.32;6.00;;;;;;;-146.25;89.38;52185.72;2080157;28;29334;-65
2023/05/01 03:26:12;;;;;;;12.43;6.28;;;;;;;-146.25;89.02;52206.00;2079517;28;20100;-65
2023/05/01 03:27:14;;;;;;;10.88;6.15;;;;;;;-146.25;89.61;52187.75;2079414;28;21010;-66
2023/05/01 03:28:16;;;;;;;11.75;5.88;;;;;;;-146.25;88.96;52171.53;2079110;28;24960;-66
2023/05/01 03:29:18;;;;;;;12.57;6.45;;;;;;;-146.25;89.29;52183.69;2080576;28;20990;-66
2023/05/01 03:30:20;;;;;;;11.00;5.93;;;;;;;-146.25;89.64;52206.00;2080385;28;20100;-66
2023/05/01 03:31:23;;;;;;;9.57;6.35;;;;;;;-146.25;89.88;52193.81;2079379;28;20088;-66
2023/05/01 03:32:28;;;;;;;8.90;5.65;;;;;;;-146.25;89.84;52226.25;2071374;28;20053;-65
2023/05/01 03:33:31;;;;;;;11.93;6.55;;;;;;;-146.25;90.06;52214.09;2064042;28;20043;-65
2023/05/01 03:34:33;;;;;;;12.18;6.50;;;;;;;-146.25;90.79;52197.88;2071474;28;20034;-65
2023/05/01 03:35:34;;;;;;;12.50;6.57;;;;;;;-146.25;89.71;52234.38;2079682;28;20844;-64
2023/05/01 03:36:40;;;;;;;11.75;6.05;;;;;;;-146.25;90.92;52197.88;2079504;28;20907;-66
2023/05/01 03:37:44;;;;;;;14.77;7.15;;;;;;;-146.25;90.84;52210.03;2080011;28;20046;-65
2023/05/01 03:38:55;;;;;;;10.82;5.85;;;;;;;-146.25;90.21;52201.94;2079686;28;20045;-66
2023/05/01 03:40:16;;;;;;;10.30;6.18;;;;;;;-146.25;91.32;52149.22;2078881;28;20034;-65
2023/05/01 03:41:36;;;;;;;8.68;5.57;;;;;;;-146.25;90.49;52210.03;2079686;28;20199;-66
2023/05/01 03:42:55;;;;;;;13.60;5.88;;;;;;;-146.25;91.18;52185.72;2078964;28;20054;-65
2023/05/01 03:43:58;;;;;;;13.05;6.28;;;;;;;-146.25;91.72;52218.16;2079522;28;20041;-65
2023/05/01 03:45:07;;;;;;;11.80;6.28;;;;;;;-146.25;91.18;52199.91;2079430;28;21013;-65
2023/05/01 03:46:09;;;;;;;10.32;5.97;;;;;;;-146.25;91.46;52206.00;2096143;22;20375;-68
2023/05/01 03:47:11;;;;;;;13.65;6.90;;;;;;;-146.25;91.77;52214.09;2098897;28;20609;-68
2023/05/01 03:48:15;;;;;;;12.02;6.35;;;;;;;-146.25;91.60;52173.56;2095807;28;20948;-68
2023/05/01 03:49:17;;;;;;;12.73;6.82;;;;;;;-146.25;91.51;52189.78;2079656;28;20046;-69
2023/05/01 03:50:21;;;;;;;10.27;6.18;;;;;;;-146.25;92.07;52224.25;2080487;28;20080;-68
2023/05/01 03:51:26;;;;;;;10.43;6.57;;;;;;;-146.25;91.56;52201.94;2095784;28;20049;-69
2023/05/01 03:52:31;;;;;;;12.13;6.70;;;;;;;-146.25;92.22;52206.00;2095572;28;20176;-69
2023/05/01 03:53:35;;;;;;;12.00;6.80;;;;;;;-146.25;92.04;52193.81;2079837;28;20034;-68
2023/05/01 03:54:40;;;;;;;11.48;6.45;;;;;;;-146.25;91.70;52191.81;2080456;28;21233;-68
2023/05/01 03:55:55;;;;;;;9.18;6.05;;;;;;;-146.25;92.23;52181.66;2081129;28;20041;-68
2023/05/01 03:56:59;;;;;;;13.27;6.13;;;;;;;-146.25;91.72;52210.03;2079636;28;20127;-69
2023/05/01 03:58:03;;;;;;;12.93;6.72;;;;;;;-146.25;91.76;52230.31;2080143;28;21034;-68
2023/05/01 03:59:06;;;;;;;9.50;6.60;;;;;;;-146.25;92.20;52226.25;2079470;28;20038;-68
2023/05/01 04:00:10;;;;;;;14.75;6.90;;;;;;;-146.25;92.10;52199.91;2071434;28;20043;-67
2023/05/01 04:01:21;;;;;;;11.93;6.05;;;;;;;-146.25;91.93;52222.22;2082439;28;20157;-69
2023/05/01 04:02:23;;;;;;;11.13;6.50;;;;;;;-146.25;92.25;52226.25;2095985;28;21131;-69
2023/05/01 04:03:26;;;;;;;13.25;6.63;;;;;;;-146.25;92.70;52206.00;2096250;28;20491;-68
2023/05/01 04:04:28;;;;;;;16.33;7.03;;;;;;;-146.25;92.39;52173.56;2076401;28;20034;-68
2023/05/01 04:05:34;;;;;;;12.10;6.43;;;;;;;-146.25;91.88;52246.53;2079412;28;20886;-68
2023/05/01 04:06:37;;;;;;;12.13;6.47;;;;;;;-146.25;92.39;52232.34;2079379;28;21068;-68
2023/05/01 04:07:40;;;;;;;9.35;6.32;;;;;;;-146.25;92.26;52218.16;2063039;28;20079;-68
2023/05/01 04:08:42;;;;;;;11.82;7.03;;;;;;;-146.25;92.31;52199.91;2063231;28;29752;-68
2023/05/01 04:09:47;;;;;;;12.10;6.53;;;;;;;-146.25;92.69;52201.94;2079045;28;20880;-68
2023/05/01 04:10:51;;;;;;;10.07;6.00;;;;;;;-146.25;92.49;52203.97;2079292;28;20773;-68
2023/05/01 04:11:53;;;;;;;12.18;6.55;;;;;;;-146.25;92.79;52220.19;2079081;28;20053;-67
2023/05/01 04:12:54;;;;;;;12.68;7.03;;;;;;;-146.25;93.04;52222.22;2070714;28;27282;-68
2023/05/01 04:13:56;;;;;;;11.55;6.50;;;;;;;-146.25;92.90;52206.00;2071585;28;20132;-69
2023/05/01 04:14:58;;;;;;;12.02;6.60;;;;;;;-146.25;92.69;52212.06;2072072;28;20116;-68
2023/05/01 04:16:00;;;;;;;12.70;6.88;;;;;;;-146.25;92.49;52206.00;2071323;28;20923;-68
2023/05/01 04:17:01;;;;;;;11.15;6.53;;;;;;;-146.25;92.17;52224.25;2072045;28;20833;-67
2023/05/01 04:18:12;;;;;;;9.88;6.60;;;;;;;-146.25;91.75;52206.00;2081127;28;20054;-67
2023/05/01 04:19:16;;;;;;;11.18;6.53;;;;;;;-146.25;92.04;52181.66;2079304;28;20152;-68
2023/05/01 04:20:21;;;;;;;13.80;7.07;;;;;;;-146.25;91.87;52185.72;2070382;28;20076;-67
2023/05/01 04:21:26;;;;;;;11.30;6.72;;;;;;;-146.25;92.62;52187.75;2071572;28;20046;-67
2023/05/01 04:22:27;;;;;;;11.05;6.10;;;;;;;-146.25;92.57;52230.31;2071060;28;20940;-67
2023/05/01 04:23:29;;;;;;;13.25;6.72;;;;;;;-146.25;91.68;52187.75;2070650;28;20050;-67
2023/05/01 04:24:33;;;;;;;14.05;6.10;;;;;;;-146.25;92.21;52206.00;2062543;28;20101;-69
2023/05/01 04:25:36;;;;;;;10.73;6.18;;;;;;;-146.25;90.92;52197.88;2063268;28;20043;-67
2023/05/01 04:26:43;;;;;;;12.15;6.35;;;;;;;-146.25;91.16;52201.94;2087240;28;20292;-67
2023/05/01 04:27:45;;;;;;;13.63;7.00;;;;;;;-146.25;90.43;52214.09;2085933;28;20226;-67
2023/05/01 04:28:49;;;;;;;13.02;6.10;;;;;;;-146.25;90.26;52173.56;2078794;28;20045;-67
2023/05/01 04:29:56;;;;;;;11.30;5.80;;;;;;;-146.25;89.59;52206.00;2078914;28;20038;-67
2023/05/01 04:30:58;;;;;;;7.93;6.07;;;;;;;-146.25;89.62;52185.72;2070755;28;20050;-67
2023/05/01 04:32:01;;;;;;;13.45;6.05;;;;;;;-146.25;89.18;52187.75;2071126;28;20042;-67
2023/05/01 04:33:10;;;;;;;7.68;5.65;;;;;;;-146.25;89.49;52185.72;2070954;28;20057;-67
2023/05/01 04:34:15;;;;;;;9.80;5.60;;;;;;;-146.25;89.28;52214.09;2072453;28;20101;-67
2023/05/01 04:35:17;;;;;;;9.65;6.22;;;;;;;-146.25;88.77;52238.44;2078926;28;20153;-65
2023/05/01 04:36:19;;;;;;;10.93;6.13;;;;;;;-146.25;88.43;52218.16;2079430;28;20035;-68
2023/05/01 04:37:21;;;;;;;9.70;5.70;;;;;;;-146.25;88.08;52201.94;2071007;28;20054;-66
2023/05/01 04:38:23;;;;;;;12.35;5.90;;;;;;;-146.25;87.75;52240.47;2071026;28;20042;-69
2023/05/01 04:39:28;;;;;;;10.25;5.68;;;;;;;-146.25;87.32;52234.38;2079663;28;20065;-69
2023/05/01 04:40:31;;;;;;;13.75;6.47;;;;;;;-146.25;86.83;52216.13;2078962;28;20935;-68
2023/05/01 04:41:33;;;;;;;8.23;5.72;;;;;;;-146.25;86.18;52195.84;2079072;28;20041;-68
2023/05/01 04:42:35;;;;;;;9.50;5.47;;;;;;;-146.25;83.87;52220.19;2070792;28;20046;-67
2023/05/01 04:43:37;;;;;;;10.80;5.53;;;;;;;-146.25;82.74;52197.88;2079160;28;20741;-69
2023/05/01 04:44:40;;;;;;;9.50;6.20;;;;;;;-146.25;82.53;52197.88;2071278;28;20906;-69
2023/05/01 04:45:46;;;;;;;10.77;5.32;;;;;;;-146.25;79.55;52214.09;2071358;28;20049;-67
2023/05/01 04:46:48;;;;;;;7.95;5.05;;;;;;;-146.25;79.20;52210.03;2079084;28;20034;-67
2023/05/01 04:47:50;;;;;;;9.52;4.88;;;;;;;-146.25;75.24;52236.41;2078765;28;26780;-67
2023/05/01 04:48:52;;;;;;;10.93;4.70;;;;;;;-146.25;74.52;52218.16;2087572;28;21030;-67
2023/05/01 04:49:56;;;;;;;11.90;4.88;;;;;;;-146.25;72.53;52224.25;2087471;28;20934;-66
2023/05/01 04:51:02;;;;;;;7.65;4.57;;;;;;;-146.25;72.02;52240.47;2079125;28;20173;-67
2023/05/01 04:52:09;;;;;;;8.15;4.57;;;;;;;-146.25;68.84;52214.09;2079221;28;20761;-67
2023/05/01 04:53:28;;;;;;;7.88;4.07;;;;;;;-146.25;66.95;52206.00;2079206;28;20772;-67
2023/05/01 04:54:30;;;;;;;7.00;4.10;;;;;;;-146.25;65.86;52201.94;2079232;28;20173;-67
2023/05/01 04:55:31;;;;;;;7.85;4.30;;;;;;;-146.25;66.50;52218.16;2078667;28;27991;-68
2023/05/01 04:56:54;;;;;;;7.32;4.05;;;;;;;-146.25;65.38;52226.25;2082887;28;20057;-67
2023/05/01 04:57:56;;;;;;;9.10;4.35;;;;;;;-146.25;66.35;52228.28;2079920;28;20176;-67
2023/05/01 04:58:58;;;;;;;9.60;4.57;;;;;;;-146.25;62.46;52212.06;2080649;28;20050;-68
2023/05/01 05:00:02;;;;;;;8.60;4.03;;;;;;;-146.25;62.12;52230.31;2088189;28;20092;-68
2023/05/01 05:01:07;;;;;;;7.57;4.53;;;;;;;-146.25;63.70;52236.41;2088657;28;20037;-67
2023/05/01 05:02:09;;;;;;;7.30;4.20;;;;;;;-146.25;63.25;52210.03;2080531;28;20088;-67